sensor_id;sensor_type;location;lat;lon;timestamp;temperature;humidity
20998;DHT22;10657;51.276;6.390;2023-05-14T00:00:45;14.60;99.90
20998;DHT22;10657;51.276;6.390;2023-05-14T00:03:13;14.60;99.90
20998;DHT22;10657;51.276;6.390;2023-05-14T00:05:40;14.60;99.90
20998;DHT22;10657;51.276;6.390;2023-05-14T00:08:06;14.50;99.90
20998;DHT22;10657;51.276;6.390;2023-05-14T00:10:33;14.60;99.90
20998;DHT22;10657;51.276;6.390;2023-05-14T00:13:00;14.60;99.90
20998;DHT22;10657;51.276;6.390;2023-05-14T00:15:27;14.50;99.90
20998;DHT22;10657;51.276;6.390;2023-05-14T00:17:53;14.50;99.90
20998;DHT22;10657;51.276;6.390;2023-05-14T00:20:20;14.40;99.90
20998;DHT22;10657;51.276;6.390;2023-05-14T00:22:47;14.40;99.90
20998;DHT22;10657;51.276;6.390;2023-05-14T00:25:14;14.40;99.90
20998;DHT22;10657;51.276;6.390;2023-05-14T00:27:41;14.50;99.90
20998;DHT22;10657;51.276;6.390;2023-05-14T00:30:07;14.40;99.90
20998;DHT22;10657;51.276;6.390;2023-05-14T00:32:34;14.40;99.90
20998;DHT22;10657;51.276;6.390;2023-05-14T00:35:01;14.40;99.90
20998;DHT22;10657;51.276;6.390;2023-05-14T00:37:29;14.40;99.90
20998;DHT22;10657;51.276;6.390;2023-05-14T00:39:56;14.30;99.90
20998;DHT22;10657;51.276;6.390;2023-05-14T00:42:23;14.20;99.90
20998;DHT22;10657;51.276;6.390;2023-05-14T00:44:49;14.20;99.90
20998;DHT22;10657;51.276;6.390;2023-05-14T00:47:16;14.10;99.90
20998;DHT22;10657;51.276;6.390;2023-05-14T00:49:43;14.10;99.90
20998;DHT22;10657;51.276;6.390;2023-05-14T00:52:11;14.10;99.90
20998;DHT22;10657;51.276;6.390;2023-05-14T00:54:38;14.10;99.90
20998;DHT22;10657;51.276;6.390;2023-05-14T00:57:05;14.00;99.90
20998;DHT22;10657;51.276;6.390;2023-05-14T00:59:32;13.90;99.90
20998;DHT22;10657;51.276;6.390;2023-05-14T01:01:59;13.90;99.90
20998;DHT22;10657;51.276;6.390;2023-05-14T01:04:26;13.90;99.90
20998;DHT22;10657;51.276;6.390;2023-05-14T01:06:57;13.90;99.90
20998;DHT22;10657;51.276;6.390;2023-05-14T01:12:34;13.50;99.90
20998;DHT22;10657;51.276;6.390;2023-05-14T01:15:14;13.60;99.90
20998;DHT22;10657;51.276;6.390;2023-05-14T01:17:53;13.70;99.90
20998;DHT22;10657;51.276;6.390;2023-05-14T01:20:23;13.60;99.90
20998;DHT22;10657;51.276;6.390;2023-05-14T01:22:50;13.70;99.90
20998;DHT22;10657;51.276;6.390;2023-05-14T01:25:17;13.60;99.90
20998;DHT22;10657;51.276;6.390;2023-05-14T01:27:59;13.40;99.90
20998;DHT22;10657;51.276;6.390;2023-05-14T01:33:25;13.20;99.90
20998;DHT22;10657;51.276;6.390;2023-05-14T01:35:53;13.10;99.90
20998;DHT22;10657;51.276;6.390;2023-05-14T01:38:20;13.20;99.90
20998;DHT22;10657;51.276;6.390;2023-05-14T01:40:49;13.30;99.90
20998;DHT22;10657;51.276;6.390;2023-05-14T01:43:16;13.30;99.90
20998;DHT22;10657;51.276;6.390;2023-05-14T01:45:44;13.40;99.90
20998;DHT22;10657;51.276;6.390;2023-05-14T01:48:11;13.40;99.90
20998;DHT22;10657;51.276;6.390;2023-05-14T01:50:38;13.20;99.90
20998;DHT22;10657;51.276;6.390;2023-05-14T01:53:04;13.10;99.90
20998;DHT22;10657;51.276;6.390;2023-05-14T01:55:31;13.10;99.90
20998;DHT22;10657;51.276;6.390;2023-05-14T01:57:58;13.20;99.90
20998;DHT22;10657;51.276;6.390;2023-05-14T02:00:25;13.20;99.90
20998;DHT22;10657;51.276;6.390;2023-05-14T02:02:52;13.10;99.90
20998;DHT22;10657;51.276;6.390;2023-05-14T02:05:19;13.20;99.90
20998;DHT22;10657;51.276;6.390;2023-05-14T02:07:46;13.10;99.90
20998;DHT22;10657;51.276;6.390;2023-05-14T02:10:13;13.00;99.90
20998;DHT22;10657;51.276;6.390;2023-05-14T02:12:39;13.10;99.90
20998;DHT22;10657;51.276;6.390;2023-05-14T02:15:07;12.90;99.90
20998;DHT22;10657;51.276;6.390;2023-05-14T02:17:34;12.90;99.90
20998;DHT22;10657;51.276;6.390;2023-05-14T02:20:01;12.70;99.90
20998;DHT22;10657;51.276;6.390;2023-05-14T02:22:27;12.80;99.90
20998;DHT22;10657;51.276;6.390;2023-05-14T02:24:54;12.90;99.90
20998;DHT22;10657;51.276;6.390;2023-05-14T02:27:21;12.90;99.90
20998;DHT22;10657;51.276;6.390;2023-05-14T02:29:48;13.00;99.90
20998;DHT22;10657;51.276;6.390;2023-05-14T02:32:14;12.90;99.90
20998;DHT22;10657;51.276;6.390;2023-05-14T02:34:41;12.90;99.90
20998;DHT22;10657;51.276;6.390;2023-05-14T02:37:08;12.80;99.90
20998;DHT22;10657;51.276;6.390;2023-05-14T02:39:34;12.80;99.90
20998;DHT22;10657;51.276;6.390;2023-05-14T02:42:01;12.80;99.90
20998;DHT22;10657;51.276;6.390;2023-05-14T02:44:27;12.70;99.90
20998;DHT22;10657;51.276;6.390;2023-05-14T02:46:54;12.70;99.90
20998;DHT22;10657;51.276;6.390;2023-05-14T02:49:21;12.70;99.90
20998;DHT22;10657;51.276;6.390;2023-05-14T02:51:47;12.70;99.90
20998;DHT22;10657;51.276;6.390;2023-05-14T02:54:14;12.50;99.90
20998;DHT22;10657;51.276;6.390;2023-05-14T02:56:42;12.50;99.90
20998;DHT22;10657;51.276;6.390;2023-05-14T02:59:08;12.50;99.90
20998;DHT22;10657;51.276;6.390;2023-05-14T03:01:35;12.50;99.90
20998;DHT22;10657;51.276;6.390;2023-05-14T03:04:03;12.40;99.90
20998;DHT22;10657;51.276;6.390;2023-05-14T03:06:29;12.40;99.90
20998;DHT22;10657;51.276;6.390;2023-05-14T03:08:56;12.60;99.90
20998;DHT22;10657;51.276;6.390;2023-05-14T03:11:23;12.60;99.90
20998;DHT22;10657;51.276;6.390;2023-05-14T03:13:50;12.50;99.90
20998;DHT22;10657;51.276;6.390;2023-05-14T03:16:16;12.40;99.90
20998;DHT22;10657;51.276;6.390;2023-05-14T03:18:43;12.20;99.90
20998;DHT22;10657;51.276;6.390;2023-05-14T03:21:10;12.30;99.90
20998;DHT22;10657;51.276;6.390;2023-05-14T03:23:36;12.30;99.90
20998;DHT22;10657;51.276;6.390;2023-05-14T03:26:03;12.20;99.90
20998;DHT22;10657;51.276;6.390;2023-05-14T03:28:30;12.30;99.90
20998;DHT22;10657;51.276;6.390;2023-05-14T03:30:57;12.20;99.90
20998;DHT22;10657;51.276;6.390;2023-05-14T03:33:23;12.30;99.90
20998;DHT22;10657;51.276;6.390;2023-05-14T03:35:50;12.40;99.90
20998;DHT22;10657;51.276;6.390;2023-05-14T03:38:17;12.30;99.90
20998;DHT22;10657;51.276;6.390;2023-05-14T03:40:44;12.20;99.90
20998;DHT22;10657;51.276;6.390;2023-05-14T03:43:10;12.30;99.90
20998;DHT22;10657;51.276;6.390;2023-05-14T03:45:38;12.40;99.90
20998;DHT22;10657;51.276;6.390;2023-05-14T03:48:05;12.20;99.90
20998;DHT22;10657;51.276;6.390;2023-05-14T03:50:32;12.20;99.90
20998;DHT22;10657;51.276;6.390;2023-05-14T03:52:59;12.10;99.90
20998;DHT22;10657;51.276;6.390;2023-05-14T03:55:25;12.20;99.90
20998;DHT22;10657;51.276;6.390;2023-05-14T03:57:52;12.20;99.90
20998;DHT22;10657;51.276;6.390;2023-05-14T04:00:19;12.20;99.90
20998;DHT22;10657;51.276;6.390;2023-05-14T04:02:46;12.30;99.90
20998;DHT22;10657;51.276;6.390;2023-05-14T04:05:13;12.30;99.90
20998;DHT22;10657;51.276;6.390;2023-05-14T04:07:40;12.40;99.90
20998;DHT22;10657;51.276;6.390;2023-05-14T04:10:07;12.30;99.90
20998;DHT22;10657;51.276;6.390;2023-05-14T04:12:34;12.20;99.90
20998;DHT22;10657;51.276;6.390;2023-05-14T04:15:00;12.20;99.90
20998;DHT22;10657;51.276;6.390;2023-05-14T04:17:27;12.20;99.90
20998;DHT22;10657;51.276;6.390;2023-05-14T04:19:54;12.20;99.90
20998;DHT22;10657;51.276;6.390;2023-05-14T04:22:20;12.20;99.90
20998;DHT22;10657;51.276;6.390;2023-05-14T04:24:47;12.20;99.90
20998;DHT22;10657;51.276;6.390;2023-05-14T04:27:19;12.30;99.90
20998;DHT22;10657;51.276;6.390;2023-05-14T04:29:47;12.20;99.90
20998;DHT22;10657;51.276;6.390;2023-05-14T04:32:14;12.20;99.90
20998;DHT22;10657;51.276;6.390;2023-05-14T04:34:41;12.20;99.90
20998;DHT22;10657;51.276;6.390;2023-05-14T04:37:08;12.30;99.90
20998;DHT22;10657;51.276;6.390;2023-05-14T04:39:35;12.20;99.90
20998;DHT22;10657;51.276;6.390;2023-05-14T04:42:02;12.20;99.90
20998;DHT22;10657;51.276;6.390;2023-05-14T04:44:29;12.30;99.90
20998;DHT22;10657;51.276;6.390;2023-05-14T04:46:55;12.30;99.90
20998;DHT22;10657;51.276;6.390;2023-05-14T04:49:22;12.30;99.90
20998;DHT22;10657;51.276;6.390;2023-05-14T04:51:49;12.30;99.90
20998;DHT22;10657;51.276;6.390;2023-05-14T04:54:16;12.30;99.90
20998;DHT22;10657;51.276;6.390;2023-05-14T04:56:42;12.30;99.90
20998;DHT22;10657;51.276;6.390;2023-05-14T04:59:09;12.30;99.90
20998;DHT22;10657;51.276;6.390;2023-05-14T05:01:36;12.20;99.90
20998;DHT22;10657;51.276;6.390;2023-05-14T05:04:03;12.20;99.90
20998;DHT22;10657;51.276;6.390;2023-05-14T05:06:29;12.30;99.90
20998;DHT22;10657;51.276;6.390;2023-05-14T05:08:57;12.40;99.90
20998;DHT22;10657;51.276;6.390;2023-05-14T05:11:26;12.30;99.90
20998;DHT22;10657;51.276;6.390;2023-05-14T05:13:52;12.30;99.90
20998;DHT22;10657;51.276;6.390;2023-05-14T05:16:19;12.30;99.90
20998;DHT22;10657;51.276;6.390;2023-05-14T05:18:46;12.40;99.90
20998;DHT22;10657;51.276;6.390;2023-05-14T05:21:12;12.50;99.90
20998;DHT22;10657;51.276;6.390;2023-05-14T05:23:39;12.60;99.90
20998;DHT22;10657;51.276;6.390;2023-05-14T05:26:06;12.60;99.90
20998;DHT22;10657;51.276;6.390;2023-05-14T05:28:32;12.60;99.90
20998;DHT22;10657;51.276;6.390;2023-05-14T05:30:59;12.70;99.90
20998;DHT22;10657;51.276;6.390;2023-05-14T05:33:26;12.70;99.90
20998;DHT22;10657;51.276;6.390;2023-05-14T05:35:52;12.70;99.90
20998;DHT22;10657;51.276;6.390;2023-05-14T05:38:19;12.80;99.90
20998;DHT22;10657;51.276;6.390;2023-05-14T05:40:46;12.80;99.90
20998;DHT22;10657;51.276;6.390;2023-05-14T05:43:14;12.80;99.90
20998;DHT22;10657;51.276;6.390;2023-05-14T05:45:40;12.80;99.90
20998;DHT22;10657;51.276;6.390;2023-05-14T05:48:07;12.80;99.90
20998;DHT22;10657;51.276;6.390;2023-05-14T05:50:34;12.80;99.90
20998;DHT22;10657;51.276;6.390;2023-05-14T05:53:00;12.90;99.90
20998;DHT22;10657;51.276;6.390;2023-05-14T05:55:28;12.90;99.90
20998;DHT22;10657;51.276;6.390;2023-05-14T05:57:54;12.90;99.90
20998;DHT22;10657;51.276;6.390;2023-05-14T06:00:21;12.90;99.90
20998;DHT22;10657;51.276;6.390;2023-05-14T06:02:49;12.80;99.90
20998;DHT22;10657;51.276;6.390;2023-05-14T06:05:16;13.00;99.90
20998;DHT22;10657;51.276;6.390;2023-05-14T06:07:43;13.10;99.90
20998;DHT22;10657;51.276;6.390;2023-05-14T06:10:09;13.30;99.90
20998;DHT22;10657;51.276;6.390;2023-05-14T06:12:36;13.30;99.90
20998;DHT22;10657;51.276;6.390;2023-05-14T06:15:03;13.20;99.90
20998;DHT22;10657;51.276;6.390;2023-05-14T06:17:30;13.20;99.90
20998;DHT22;10657;51.276;6.390;2023-05-14T06:19:56;13.30;99.90
20998;DHT22;10657;51.276;6.390;2023-05-14T06:22:23;13.30;99.90
20998;DHT22;10657;51.276;6.390;2023-05-14T06:24:49;13.30;99.90
20998;DHT22;10657;51.276;6.390;2023-05-14T06:27:16;13.40;99.90
20998;DHT22;10657;51.276;6.390;2023-05-14T06:29:43;13.30;99.90
20998;DHT22;10657;51.276;6.390;2023-05-14T06:32:09;13.30;99.90
20998;DHT22;10657;51.276;6.390;2023-05-14T06:34:37;13.30;99.90
20998;DHT22;10657;51.276;6.390;2023-05-14T06:37:04;13.40;99.90
20998;DHT22;10657;51.276;6.390;2023-05-14T06:39:31;13.40;99.90
20998;DHT22;10657;51.276;6.390;2023-05-14T06:41:57;13.50;99.90
20998;DHT22;10657;51.276;6.390;2023-05-14T06:44:24;13.50;99.90
20998;DHT22;10657;51.276;6.390;2023-05-14T06:46:50;13.50;99.90
20998;DHT22;10657;51.276;6.390;2023-05-14T06:49:17;13.60;99.90
20998;DHT22;10657;51.276;6.390;2023-05-14T06:51:44;13.70;99.90
20998;DHT22;10657;51.276;6.390;2023-05-14T06:54:11;13.80;99.90
20998;DHT22;10657;51.276;6.390;2023-05-14T06:56:38;13.80;99.90
20998;DHT22;10657;51.276;6.390;2023-05-14T06:59:05;13.80;99.90
20998;DHT22;10657;51.276;6.390;2023-05-14T07:01:31;13.90;99.90
20998;DHT22;10657;51.276;6.390;2023-05-14T07:03:58;14.00;99.90
20998;DHT22;10657;51.276;6.390;2023-05-14T07:06:24;14.00;99.90
20998;DHT22;10657;51.276;6.390;2023-05-14T07:08:51;14.10;99.90
20998;DHT22;10657;51.276;6.390;2023-05-14T07:11:18;14.20;99.90
20998;DHT22;10657;51.276;6.390;2023-05-14T07:13:45;14.30;99.90
20998;DHT22;10657;51.276;6.390;2023-05-14T07:16:11;14.30;99.90
20998;DHT22;10657;51.276;6.390;2023-05-14T07:18:38;14.50;99.90
20998;DHT22;10657;51.276;6.390;2023-05-14T07:21:05;14.50;99.90
20998;DHT22;10657;51.276;6.390;2023-05-14T07:23:32;14.50;99.90
20998;DHT22;10657;51.276;6.390;2023-05-14T07:26:02;14.50;99.90
20998;DHT22;10657;51.276;6.390;2023-05-14T07:28:28;14.60;99.90
20998;DHT22;10657;51.276;6.390;2023-05-14T07:30:55;14.60;99.90
20998;DHT22;10657;51.276;6.390;2023-05-14T07:33:23;14.80;99.90
20998;DHT22;10657;51.276;6.390;2023-05-14T07:35:50;15.00;99.90
20998;DHT22;10657;51.276;6.390;2023-05-14T07:38:17;15.10;99.90
20998;DHT22;10657;51.276;6.390;2023-05-14T07:40:44;15.10;99.90
20998;DHT22;10657;51.276;6.390;2023-05-14T07:43:11;15.20;99.90
20998;DHT22;10657;51.276;6.390;2023-05-14T07:45:38;15.20;99.90
20998;DHT22;10657;51.276;6.390;2023-05-14T07:48:05;15.30;99.90
20998;DHT22;10657;51.276;6.390;2023-05-14T07:50:32;15.30;99.90
20998;DHT22;10657;51.276;6.390;2023-05-14T07:52:58;15.20;99.90
20998;DHT22;10657;51.276;6.390;2023-05-14T07:55:25;15.20;99.90
20998;DHT22;10657;51.276;6.390;2023-05-14T07:57:52;15.20;99.90
20998;DHT22;10657;51.276;6.390;2023-05-14T08:00:18;15.40;99.90
20998;DHT22;10657;51.276;6.390;2023-05-14T08:02:45;15.40;99.90
20998;DHT22;10657;51.276;6.390;2023-05-14T08:05:12;15.40;99.90
20998;DHT22;10657;51.276;6.390;2023-05-14T08:07:38;15.40;99.90
20998;DHT22;10657;51.276;6.390;2023-05-14T08:10:06;15.40;99.90
20998;DHT22;10657;51.276;6.390;2023-05-14T08:12:33;15.50;99.90
20998;DHT22;10657;51.276;6.390;2023-05-14T08:15:00;15.50;99.90
20998;DHT22;10657;51.276;6.390;2023-05-14T08:17:26;15.60;99.90
20998;DHT22;10657;51.276;6.390;2023-05-14T08:19:53;15.60;99.90
20998;DHT22;10657;51.276;6.390;2023-05-14T08:22:20;15.80;99.90
20998;DHT22;10657;51.276;6.390;2023-05-14T08:24:47;15.90;99.90
20998;DHT22;10657;51.276;6.390;2023-05-14T08:27:14;16.10;99.90
20998;DHT22;10657;51.276;6.390;2023-05-14T08:29:42;16.10;99.90
20998;DHT22;10657;51.276;6.390;2023-05-14T08:32:08;16.10;99.90
20998;DHT22;10657;51.276;6.390;2023-05-14T08:34:49;16.20;99.90
20998;DHT22;10657;51.276;6.390;2023-05-14T08:37:16;16.40;99.90
20998;DHT22;10657;51.276;6.390;2023-05-14T08:39:42;16.40;99.90
20998;DHT22;10657;51.276;6.390;2023-05-14T08:42:11;16.60;99.90
20998;DHT22;10657;51.276;6.390;2023-05-14T08:47:11;16.50;99.90
20998;DHT22;10657;51.276;6.390;2023-05-14T08:49:41;16.50;99.90
20998;DHT22;10657;51.276;6.390;2023-05-14T08:52:09;16.60;99.90
20998;DHT22;10657;51.276;6.390;2023-05-14T08:54:36;16.70;99.90
20998;DHT22;10657;51.276;6.390;2023-05-14T08:57:04;16.80;99.90
20998;DHT22;10657;51.276;6.390;2023-05-14T08:59:31;16.90;99.90
20998;DHT22;10657;51.276;6.390;2023-05-14T09:02:00;17.00;99.90
20998;DHT22;10657;51.276;6.390;2023-05-14T09:04:28;16.90;99.90
20998;DHT22;10657;51.276;6.390;2023-05-14T09:06:56;16.90;99.90
20998;DHT22;10657;51.276;6.390;2023-05-14T09:09:25;17.00;99.90
20998;DHT22;10657;51.276;6.390;2023-05-14T09:11:52;17.00;99.90
20998;DHT22;10657;51.276;6.390;2023-05-14T09:14:20;17.00;99.90
20998;DHT22;10657;51.276;6.390;2023-05-14T09:16:49;17.10;99.90
20998;DHT22;10657;51.276;6.390;2023-05-14T09:19:16;17.10;99.90
20998;DHT22;10657;51.276;6.390;2023-05-14T09:21:47;17.10;99.90
20998;DHT22;10657;51.276;6.390;2023-05-14T09:24:22;17.10;99.90
20998;DHT22;10657;51.276;6.390;2023-05-14T09:26:51;17.20;99.90
20998;DHT22;10657;51.276;6.390;2023-05-14T09:29:18;17.20;99.90
20998;DHT22;10657;51.276;6.390;2023-05-14T09:31:46;17.20;99.90
20998;DHT22;10657;51.276;6.390;2023-05-14T09:34:24;17.20;99.90
20998;DHT22;10657;51.276;6.390;2023-05-14T09:37:03;17.10;99.90
20998;DHT22;10657;51.276;6.390;2023-05-14T09:39:30;17.10;99.90
20998;DHT22;10657;51.276;6.390;2023-05-14T09:41:57;17.10;99.90
20998;DHT22;10657;51.276;6.390;2023-05-14T09:44:24;17.10;99.90
20998;DHT22;10657;51.276;6.390;2023-05-14T09:46:52;17.10;99.90
20998;DHT22;10657;51.276;6.390;2023-05-14T09:49:19;17.10;99.90
20998;DHT22;10657;51.276;6.390;2023-05-14T09:51:47;17.20;99.90
20998;DHT22;10657;51.276;6.390;2023-05-14T09:54:14;17.30;99.90
20998;DHT22;10657;51.276;6.390;2023-05-14T09:56:42;17.30;99.90
20998;DHT22;10657;51.276;6.390;2023-05-14T09:59:09;17.40;99.90
20998;DHT22;10657;51.276;6.390;2023-05-14T10:01:37;17.40;99.90
20998;DHT22;10657;51.276;6.390;2023-05-14T10:04:06;17.50;99.90
20998;DHT22;10657;51.276;6.390;2023-05-14T10:06:36;17.40;99.90
20998;DHT22;10657;51.276;6.390;2023-05-14T10:09:04;17.50;99.90
20998;DHT22;10657;51.276;6.390;2023-05-14T10:11:34;17.60;99.90
20998;DHT22;10657;51.276;6.390;2023-05-14T10:16:36;17.70;99.90
20998;DHT22;10657;51.276;6.390;2023-05-14T10:19:14;17.90;99.90
20998;DHT22;10657;51.276;6.390;2023-05-14T10:21:58;17.90;99.90
20998;DHT22;10657;51.276;6.390;2023-05-14T10:24:28;17.90;99.90
20998;DHT22;10657;51.276;6.390;2023-05-14T10:26:55;18.20;99.90
20998;DHT22;10657;51.276;6.390;2023-05-14T10:29:34;18.20;99.90
20998;DHT22;10657;51.276;6.390;2023-05-14T10:32:07;18.30;99.90
20998;DHT22;10657;51.276;6.390;2023-05-14T10:34:39;18.20;99.90
20998;DHT22;10657;51.276;6.390;2023-05-14T10:37:10;18.30;99.90
20998;DHT22;10657;51.276;6.390;2023-05-14T10:45:04;18.60;99.90
20998;DHT22;10657;51.276;6.390;2023-05-14T10:47:37;18.60;99.90
20998;DHT22;10657;51.276;6.390;2023-05-14T10:50:05;18.70;99.90
20998;DHT22;10657;51.276;6.390;2023-05-14T10:52:33;18.70;99.90
20998;DHT22;10657;51.276;6.390;2023-05-14T10:55:02;18.90;99.90
20998;DHT22;10657;51.276;6.390;2023-05-14T10:57:30;19.20;99.90
20998;DHT22;10657;51.276;6.390;2023-05-14T10:59:59;19.20;99.90
20998;DHT22;10657;51.276;6.390;2023-05-14T11:02:35;19.10;99.90
20998;DHT22;10657;51.276;6.390;2023-05-14T11:05:08;19.20;99.90
20998;DHT22;10657;51.276;6.390;2023-05-14T11:07:38;19.20;99.90
20998;DHT22;10657;51.276;6.390;2023-05-14T11:10:13;19.30;99.90
20998;DHT22;10657;51.276;6.390;2023-05-14T11:12:42;19.30;99.90
20998;DHT22;10657;51.276;6.390;2023-05-14T11:15:10;19.40;99.90
20998;DHT22;10657;51.276;6.390;2023-05-14T11:17:39;19.60;99.90
20998;DHT22;10657;51.276;6.390;2023-05-14T11:20:07;19.50;99.90
20998;DHT22;10657;51.276;6.390;2023-05-14T11:22:35;19.60;99.90
20998;DHT22;10657;51.276;6.390;2023-05-14T11:25:02;19.80;99.90
20998;DHT22;10657;51.276;6.390;2023-05-14T11:27:32;19.90;99.90
20998;DHT22;10657;51.276;6.390;2023-05-14T11:29:58;20.00;99.90
20998;DHT22;10657;51.276;6.390;2023-05-14T11:32:26;20.10;99.90
20998;DHT22;10657;51.276;6.390;2023-05-14T11:34:53;20.30;99.90
20998;DHT22;10657;51.276;6.390;2023-05-14T11:37:20;20.50;99.90
20998;DHT22;10657;51.276;6.390;2023-05-14T11:39:49;20.60;99.90
20998;DHT22;10657;51.276;6.390;2023-05-14T11:42:16;20.90;99.90
20998;DHT22;10657;51.276;6.390;2023-05-14T11:44:46;21.00;99.90
20998;DHT22;10657;51.276;6.390;2023-05-14T11:47:15;20.80;99.90
20998;DHT22;10657;51.276;6.390;2023-05-14T11:49:42;20.60;99.90
20998;DHT22;10657;51.276;6.390;2023-05-14T11:52:09;20.40;99.90
20998;DHT22;10657;51.276;6.390;2023-05-14T11:54:37;20.40;99.90
20998;DHT22;10657;51.276;6.390;2023-05-14T11:57:12;20.40;99.90
20998;DHT22;10657;51.276;6.390;2023-05-14T11:59:39;20.30;99.90
20998;DHT22;10657;51.276;6.390;2023-05-14T12:02:11;20.30;99.90
20998;DHT22;10657;51.276;6.390;2023-05-14T12:04:39;20.40;99.90
20998;DHT22;10657;51.276;6.390;2023-05-14T12:07:10;20.40;99.90
20998;DHT22;10657;51.276;6.390;2023-05-14T12:09:41;20.30;99.90
20998;DHT22;10657;51.276;6.390;2023-05-14T12:12:11;20.30;99.90
20998;DHT22;10657;51.276;6.390;2023-05-14T12:14:40;20.30;99.90
20998;DHT22;10657;51.276;6.390;2023-05-14T12:17:34;20.30;99.90
20998;DHT22;10657;51.276;6.390;2023-05-14T12:20:03;20.60;99.90
20998;DHT22;10657;51.276;6.390;2023-05-14T12:22:30;20.60;99.90
20998;DHT22;10657;51.276;6.390;2023-05-14T12:24:58;20.60;99.90
20998;DHT22;10657;51.276;6.390;2023-05-14T12:27:26;20.70;99.90
20998;DHT22;10657;51.276;6.390;2023-05-14T12:30:04;21.10;99.90
20998;DHT22;10657;51.276;6.390;2023-05-14T12:32:47;21.50;99.90
20998;DHT22;10657;51.276;6.390;2023-05-14T12:35:17;21.60;99.90
20998;DHT22;10657;51.276;6.390;2023-05-14T12:37:44;21.80;99.90
20998;DHT22;10657;51.276;6.390;2023-05-14T12:40:11;21.90;99.90
20998;DHT22;10657;51.276;6.390;2023-05-14T12:42:37;22.00;99.90
20998;DHT22;10657;51.276;6.390;2023-05-14T12:45:04;22.10;99.90
20998;DHT22;10657;51.276;6.390;2023-05-14T12:47:33;22.20;99.90
20998;DHT22;10657;51.276;6.390;2023-05-14T12:50:01;22.20;99.90
20998;DHT22;10657;51.276;6.390;2023-05-14T12:52:28;21.90;99.90
20998;DHT22;10657;51.276;6.390;2023-05-14T12:54:57;22.10;99.90
20998;DHT22;10657;51.276;6.390;2023-05-14T12:57:24;22.30;99.90
20998;DHT22;10657;51.276;6.390;2023-05-14T12:59:54;22.50;99.90
20998;DHT22;10657;51.276;6.390;2023-05-14T13:02:21;22.80;99.90
20998;DHT22;10657;51.276;6.390;2023-05-14T13:04:47;23.10;99.90
20998;DHT22;10657;51.276;6.390;2023-05-14T13:07:14;23.10;99.90
20998;DHT22;10657;51.276;6.390;2023-05-14T13:09:41;23.00;99.90
20998;DHT22;10657;51.276;6.390;2023-05-14T13:12:07;23.10;99.90
20998;DHT22;10657;51.276;6.390;2023-05-14T13:14:34;23.10;99.90
20998;DHT22;10657;51.276;6.390;2023-05-14T13:17:02;23.10;99.90
20998;DHT22;10657;51.276;6.390;2023-05-14T13:19:29;23.00;99.90
20998;DHT22;10657;51.276;6.390;2023-05-14T13:21:56;23.20;99.90
20998;DHT22;10657;51.276;6.390;2023-05-14T13:24:23;23.10;99.50
20998;DHT22;10657;51.276;6.390;2023-05-14T13:26:50;23.30;99.50
20998;DHT22;10657;51.276;6.390;2023-05-14T13:29:17;23.50;98.10
20998;DHT22;10657;51.276;6.390;2023-05-14T13:31:43;23.70;99.10
20998;DHT22;10657;51.276;6.390;2023-05-14T13:34:10;23.70;99.30
20998;DHT22;10657;51.276;6.390;2023-05-14T13:36:38;23.90;99.90
20998;DHT22;10657;51.276;6.390;2023-05-14T13:39:05;24.10;99.90
20998;DHT22;10657;51.276;6.390;2023-05-14T13:41:32;24.00;99.90
20998;DHT22;10657;51.276;6.390;2023-05-14T13:44:01;23.90;99.90
20998;DHT22;10657;51.276;6.390;2023-05-14T13:46:28;23.80;98.30
20998;DHT22;10657;51.276;6.390;2023-05-14T13:48:54;23.80;98.20
20998;DHT22;10657;51.276;6.390;2023-05-14T13:51:22;23.70;97.40
20998;DHT22;10657;51.276;6.390;2023-05-14T13:53:49;24.10;96.50
20998;DHT22;10657;51.276;6.390;2023-05-14T13:56:16;24.00;94.70
20998;DHT22;10657;51.276;6.390;2023-05-14T13:58:42;23.90;95.30
20998;DHT22;10657;51.276;6.390;2023-05-14T14:01:09;23.80;97.40
20998;DHT22;10657;51.276;6.390;2023-05-14T14:03:36;23.80;95.00
20998;DHT22;10657;51.276;6.390;2023-05-14T14:06:02;23.80;93.60
20998;DHT22;10657;51.276;6.390;2023-05-14T14:08:29;23.60;93.70
20998;DHT22;10657;51.276;6.390;2023-05-14T14:10:56;23.80;95.70
20998;DHT22;10657;51.276;6.390;2023-05-14T14:13:23;24.00;94.80
20998;DHT22;10657;51.276;6.390;2023-05-14T14:15:50;23.70;93.80
20998;DHT22;10657;51.276;6.390;2023-05-14T14:18:16;23.50;94.80
20998;DHT22;10657;51.276;6.390;2023-05-14T14:20:43;23.40;97.00
20998;DHT22;10657;51.276;6.390;2023-05-14T14:23:10;23.40;95.70
20998;DHT22;10657;51.276;6.390;2023-05-14T14:25:36;23.30;96.10
20998;DHT22;10657;51.276;6.390;2023-05-14T14:28:03;23.20;96.60
20998;DHT22;10657;51.276;6.390;2023-05-14T14:30:30;23.40;97.10
20998;DHT22;10657;51.276;6.390;2023-05-14T14:32:57;23.50;95.60
20998;DHT22;10657;51.276;6.390;2023-05-14T14:35:26;23.60;96.50
20998;DHT22;10657;51.276;6.390;2023-05-14T14:37:53;23.60;93.90
20998;DHT22;10657;51.276;6.390;2023-05-14T14:40:21;23.60;95.80
20998;DHT22;10657;51.276;6.390;2023-05-14T14:42:49;23.50;94.90
20998;DHT22;10657;51.276;6.390;2023-05-14T14:45:16;23.70;95.10
20998;DHT22;10657;51.276;6.390;2023-05-14T14:47:45;23.50;93.60
20998;DHT22;10657;51.276;6.390;2023-05-14T14:50:12;23.60;93.70
20998;DHT22;10657;51.276;6.390;2023-05-14T14:52:40;23.40;94.40
20998;DHT22;10657;51.276;6.390;2023-05-14T14:55:11;23.50;94.10
20998;DHT22;10657;51.276;6.390;2023-05-14T14:57:38;23.50;93.70
20998;DHT22;10657;51.276;6.390;2023-05-14T15:00:05;23.20;93.10
20998;DHT22;10657;51.276;6.390;2023-05-14T15:02:32;23.10;93.40
20998;DHT22;10657;51.276;6.390;2023-05-14T15:04:59;23.00;93.40
20998;DHT22;10657;51.276;6.390;2023-05-14T15:07:25;23.00;95.10
20998;DHT22;10657;51.276;6.390;2023-05-14T15:09:52;23.10;92.90
20998;DHT22;10657;51.276;6.390;2023-05-14T15:12:19;23.00;92.80
20998;DHT22;10657;51.276;6.390;2023-05-14T15:14:45;22.90;95.70
20998;DHT22;10657;51.276;6.390;2023-05-14T15:17:12;22.90;92.40
20998;DHT22;10657;51.276;6.390;2023-05-14T15:19:39;22.90;94.20
20998;DHT22;10657;51.276;6.390;2023-05-14T15:22:05;22.90;94.10
20998;DHT22;10657;51.276;6.390;2023-05-14T15:24:32;22.90;93.80
20998;DHT22;10657;51.276;6.390;2023-05-14T15:26:58;22.70;93.30
20998;DHT22;10657;51.276;6.390;2023-05-14T15:29:25;22.70;94.40
20998;DHT22;10657;51.276;6.390;2023-05-14T15:31:52;22.70;94.70
20998;DHT22;10657;51.276;6.390;2023-05-14T15:34:19;22.70;94.20
20998;DHT22;10657;51.276;6.390;2023-05-14T15:36:45;22.70;93.90
20998;DHT22;10657;51.276;6.390;2023-05-14T15:39:12;22.60;93.40
20998;DHT22;10657;51.276;6.390;2023-05-14T15:41:39;22.50;93.20
20998;DHT22;10657;51.276;6.390;2023-05-14T15:44:06;22.40;94.10
20998;DHT22;10657;51.276;6.390;2023-05-14T15:46:32;22.50;95.40
20998;DHT22;10657;51.276;6.390;2023-05-14T15:48:59;22.50;94.60